메인 페이지
METAR-TAF:

METAR-TAF

공항 :

엘도라도 국제공항

보고타, 콜롬비아

위도: 04-43N, 경도: 074-09W, 고도: 2547m

현재 날씨관측

예보는 40분 전, 13:31시(UTC)에 발표되었습니다.
동북동7kt
온도 16°C
습도 77%
기압 1028 hPa
시정 10km 이상
고도 2300ft 상공 구름 보통

METAR: SKBO 221331Z 06007KT 9999 SCT023 16/12 Q1028 NOSIG

시각: 09:11 (14:11 UTC)

예보

예보는 3 시간 41분 전, 10:30시(UTC)에 발표되었습니다.
예보 대상 시간: 22일 12시부터 23일 12시까지 (UTC)
여러 방향의 바람 3kt
시정 10km 이상
고도 1700ft 상공 구름 보통
전환 중
22일 15시부터 22일 17시까지 (UTC)
남동14kt
일시적
22일 18시부터 22일 22시까지 (UTC)
시정: 5000m
고도 1700ft 상공 구름 많음, 타워링 적운.
비, 이슬비
전환 중
23일 01시부터 23일 03시까지 (UTC)
여러 방향의 바람 3kt

TAF: SKBO 221030Z 2212/2312 VRB03KT 9999 SCT017 BECMG 2215/2217 14014KT TEMPO 2218/2222 5000 RADZ BKN017TCU BECMG 2301/2303 VRB03KT TX20/2218Z TN10/2310Z

4,000개 이상의 공항 관측 자료 및 예보 (METAR 및 TAF 보고).

지도상에서 검색 가능한 기상관측소가 노란 점과 빨간 점으로 표시되어 있습니다.

기상관측소 명을 보려면 표시 위로 마우스를 이동하세요.

날씨 관측과 예보를 보려면 클릭하세요.

지도 변경 : 확대하려면 엑스 표시가 있는 녹색 버튼, 축소하려면 빼기 표시가 있는 녹색 버튼, 다음 페이지의 지도를 보려면 녹색 화살표를 클릭하세요.


METAR-TAF: